createdAt,value
2022-12-09T00:01:51.670Z,76.38
2022-12-09T00:04:38.377Z,76.14
2022-12-09T00:07:24.437Z,76.15
2022-12-09T00:10:11.262Z,76.23
2022-12-09T00:12:57.672Z,75.90
2022-12-09T00:15:44.732Z,76.52
2022-12-09T00:18:31.502Z,76.09
2022-12-09T00:21:19.125Z,76.39
2022-12-09T00:24:06.999Z,76.36
2022-12-09T00:26:53.082Z,76.35
2022-12-09T00:29:39.196Z,76.37
2022-12-09T00:32:25.855Z,76.43
2022-12-09T00:35:12.307Z,76.41
2022-12-09T00:37:58.608Z,76.32
2022-12-09T00:40:44.925Z,76.07
2022-12-09T00:43:31.661Z,76.29
2022-12-09T00:46:18.400Z,76.49
2022-12-09T00:49:04.732Z,76.46
2022-12-09T00:51:54.076Z,76.30
2022-12-09T00:54:40.622Z,76.24
2022-12-09T00:57:27.140Z,76.51
2022-12-09T01:00:13.775Z,76.50
2022-12-09T01:03:00.326Z,76.64
2022-12-09T01:05:47.128Z,76.77
2022-12-09T01:08:35.133Z,76.48
2022-12-09T01:11:26.427Z,76.57
2022-12-09T01:14:12.825Z,76.33
2022-12-09T01:16:59.334Z,76.16
2022-12-09T01:19:46.246Z,76.13
2022-12-09T01:22:32.785Z,76.23
2022-12-09T01:25:19.513Z,76.31
2022-12-09T01:28:05.749Z,76.34
2022-12-09T01:30:52.335Z,76.43
2022-12-09T01:33:39.517Z,76.43
2022-12-09T01:36:28.076Z,76.42
2022-12-09T01:39:14.470Z,76.40
2022-12-09T01:42:04.304Z,76.74
2022-12-09T01:45:22.315Z,76.66
2022-12-09T01:48:14.437Z,76.57
2022-12-09T01:51:03.407Z,76.46
2022-12-09T01:53:50.234Z,76.44
2022-12-09T01:56:37.206Z,76.35
2022-12-09T01:59:23.563Z,76.03
2022-12-09T02:02:12.149Z,76.40
2022-12-09T02:04:58.859Z,76.05
2022-12-09T02:07:45.500Z,76.32
2022-12-09T02:10:32.093Z,76.22
2022-12-09T02:13:26.860Z,76.48
2022-12-09T02:16:16.428Z,76.13
2022-12-09T02:19:22.862Z,76.42
2022-12-09T02:22:09.698Z,76.45
2022-12-09T02:24:59.094Z,76.51
2022-12-09T02:27:59.368Z,76.68
2022-12-09T02:31:22.407Z,76.65
2022-12-09T02:34:18.125Z,77.05
2022-12-09T02:37:27.799Z,76.45
2022-12-09T02:40:25.683Z,76.60
2022-12-09T02:43:12.225Z,76.52
2022-12-09T02:45:58.769Z,76.20
2022-12-09T02:48:48.073Z,76.16
2022-12-09T02:51:35.540Z,76.25
2022-12-09T02:54:22.383Z,76.01
2022-12-09T02:57:13.101Z,76.21
2022-12-09T02:59:59.443Z,76.00
2022-12-09T03:02:47.827Z,76.07
2022-12-09T03:05:41.464Z,76.29
2022-12-09T03:08:39.986Z,76.24
2022-12-09T03:11:26.630Z,76.43
2022-12-09T03:14:16.575Z,76.41
2022-12-09T03:17:12.878Z,76.37
2022-12-09T03:20:05.304Z,76.58
2022-12-09T03:22:53.093Z,76.55
2022-12-09T03:25:42.332Z,76.62
2022-12-09T03:28:35.836Z,76.85
2022-12-09T03:31:23.793Z,76.74
2022-12-09T03:34:11.059Z,77.31
2022-12-09T03:36:57.674Z,77.51
2022-12-09T03:39:44.491Z,77.55
2022-12-09T03:42:39.691Z,77.41
2022-12-09T03:45:26.102Z,77.48
2022-12-09T03:48:12.364Z,77.30
2022-12-09T03:51:12.401Z,77.27
2022-12-09T03:54:02.057Z,77.34
2022-12-09T03:56:50.054Z,77.62
2022-12-09T03:59:36.181Z,77.95
2022-12-09T04:02:23.560Z,78.14
2022-12-09T04:05:10.595Z,78.06
2022-12-09T04:07:57.086Z,77.83
2022-12-09T04:10:43.609Z,77.60
2022-12-09T04:13:30.006Z,77.24
2022-12-09T04:16:16.413Z,77.39
2022-12-09T04:19:02.803Z,77.35
2022-12-09T04:21:49.472Z,77.34
2022-12-09T04:24:35.689Z,77.25
2022-12-09T04:27:22.706Z,77.16
2022-12-09T04:30:09.520Z,77.28
2022-12-09T04:32:56.156Z,77.39
2022-12-09T04:35:43.100Z,77.24
2022-12-09T04:38:29.302Z,77.47
2022-12-09T04:41:16.136Z,77.73
2022-12-09T04:44:03.176Z,77.87
2022-12-09T04:46:49.497Z,78.02
2022-12-09T04:49:36.335Z,78.17
2022-12-09T04:52:22.742Z,78.38
2022-12-09T04:55:09.935Z,78.69
2022-12-09T04:57:56.483Z,78.15
2022-12-09T05:00:43.224Z,77.76
2022-12-09T05:03:30.134Z,78.22
2022-12-09T05:06:17.016Z,78.55
2022-12-09T05:09:03.782Z,78.75
2022-12-09T05:11:52.433Z,78.35
2022-12-09T05:14:38.983Z,78.13
2022-12-09T05:17:25.520Z,77.91
2022-12-09T05:20:13.189Z,77.98
2022-12-09T05:23:04.318Z,77.92
2022-12-09T05:25:56.056Z,78.07
2022-12-09T05:28:43.010Z,78.28
2022-12-09T05:31:29.291Z,78.40
2022-12-09T05:34:16.096Z,78.42
2022-12-09T05:37:03.022Z,78.56
2022-12-09T05:39:49.777Z,78.42
2022-12-09T05:42:41.149Z,78.79
2022-12-09T05:45:28.457Z,78.86
2022-12-09T05:48:15.092Z,78.98
2022-12-09T05:51:06.562Z,78.57
2022-12-09T05:53:53.834Z,78.71
2022-12-09T05:56:46.177Z,78.66
2022-12-09T05:59:34.423Z,78.91
2022-12-09T06:02:21.080Z,79.26
2022-12-09T06:05:08.843Z,78.85
2022-12-09T06:07:55.700Z,78.31
2022-12-09T06:10:42.486Z,78.20
2022-12-09T06:13:29.235Z,78.42
2022-12-09T06:16:19.028Z,78.66
2022-12-09T06:19:06.322Z,78.87
2022-12-09T06:21:53.872Z,78.37
2022-12-09T06:24:40.566Z,78.39
2022-12-09T06:27:27.588Z,78.09
2022-12-09T06:30:14.289Z,77.84
2022-12-09T06:33:00.714Z,77.46
2022-12-09T06:35:47.560Z,77.34
2022-12-09T06:38:34.150Z,77.36
2022-12-09T06:41:20.649Z,77.37
2022-12-09T06:44:07.440Z,77.28
2022-12-09T06:46:53.945Z,77.57
2022-12-09T06:49:40.438Z,77.54
2022-12-09T06:52:27.072Z,77.57
2022-12-09T06:55:14.274Z,77.82
2022-12-09T06:58:00.523Z,78.08
2022-12-09T07:00:47.482Z,77.93
2022-12-09T07:03:34.736Z,77.92
2022-12-09T07:06:28.642Z,77.80
2022-12-09T07:09:19.912Z,77.99
2022-12-09T07:12:07.333Z,77.97
2022-12-09T07:14:54.153Z,77.69
2022-12-09T07:17:40.833Z,78.05
2022-12-09T07:20:27.451Z,78.09
2022-12-09T07:23:14.421Z,78.38
2022-12-09T07:26:02.384Z,78.24
2022-12-09T07:28:50.458Z,77.90
2022-12-09T07:31:37.463Z,77.92
2022-12-09T07:34:24.269Z,77.66
2022-12-09T07:37:10.849Z,77.59
2022-12-09T07:39:57.169Z,77.50
2022-12-09T07:42:43.611Z,77.40
2022-12-09T07:45:30.796Z,77.02
2022-12-09T07:48:17.694Z,76.22
2022-12-09T07:51:04.748Z,75.77
2022-12-09T07:53:51.703Z,75.44
2022-12-09T07:56:38.531Z,75.35
2022-12-09T07:59:25.463Z,75.22
2022-12-09T08:02:12.432Z,76.03
2022-12-09T08:04:59.284Z,76.43
2022-12-09T08:07:46.550Z,75.48
2022-12-09T08:10:33.242Z,73.90
2022-12-09T08:13:21.135Z,71.83
2022-12-09T08:16:08.579Z,68.67
2022-12-09T08:18:55.554Z,65.36
2022-12-09T08:21:42.580Z,64.43
2022-12-09T08:24:29.477Z,64.17
2022-12-09T08:27:16.275Z,59.91
2022-12-09T08:30:03.482Z,58.46
2022-12-09T08:32:50.092Z,57.61
2022-12-09T08:35:38.016Z,57.84
2022-12-09T08:38:25.179Z,59.24
2022-12-09T08:41:14.964Z,58.42
2022-12-09T08:44:30.632Z,59.75
2022-12-09T08:47:17.189Z,58.28
2022-12-09T08:50:04.306Z,57.75
2022-12-09T08:52:51.378Z,58.52
2022-12-09T08:55:39.507Z,58.23
2022-12-09T08:58:27.346Z,56.94
2022-12-09T09:01:18.015Z,57.88
2022-12-09T09:04:10.632Z,56.81
2022-12-09T09:06:57.877Z,57.69
2022-12-09T09:09:44.666Z,58.81
2022-12-09T09:12:31.169Z,58.31
2022-12-09T09:15:18.826Z,58.71
2022-12-09T09:18:05.583Z,58.47
2022-12-09T09:20:53.361Z,58.59
2022-12-09T09:23:40.780Z,58.29
2022-12-09T09:26:28.290Z,58.46
2022-12-09T09:29:15.889Z,58.85
2022-12-09T09:32:02.804Z,59.09
2022-12-09T09:34:50.723Z,58.18
2022-12-09T09:37:37.663Z,58.22
2022-12-09T09:40:24.232Z,58.80
2022-12-09T09:43:15.582Z,59.02
2022-12-09T09:46:02.016Z,58.84
2022-12-09T09:48:48.662Z,57.43
2022-12-09T09:51:35.096Z,56.54
2022-12-09T09:54:21.420Z,55.65
2022-12-09T09:57:17.521Z,57.35
2022-12-09T10:00:18.169Z,56.11
2022-12-09T10:03:24.392Z,56.63
2022-12-09T10:06:27.177Z,57.45
2022-12-09T10:09:17.941Z,57.91
2022-12-09T10:12:20.013Z,57.93
2022-12-09T10:15:16.149Z,57.69
2022-12-09T10:18:43.123Z,58.94
2022-12-09T10:21:31.441Z,59.07
2022-12-09T10:24:27.809Z,59.96
2022-12-09T10:27:34.988Z,60.52
2022-12-09T10:30:22.475Z,60.93
2022-12-09T10:33:13.547Z,61.05
2022-12-09T10:36:00.167Z,61.48
2022-12-09T10:38:46.759Z,61.38
2022-12-09T10:41:57.871Z,61.95
2022-12-09T10:44:45.147Z,62.31
2022-12-09T10:47:32.328Z,62.52
2022-12-09T10:50:27.459Z,63.01
2022-12-09T10:53:14.971Z,62.38
2022-12-09T10:56:01.800Z,62.49
2022-12-09T10:58:48.685Z,62.85
2022-12-09T11:01:50.677Z,61.75
2022-12-09T11:04:39.365Z,60.37
2022-12-09T11:07:26.338Z,60.70
2022-12-09T11:10:22.188Z,61.12
2022-12-09T11:13:15.226Z,60.07
2022-12-09T11:16:04.941Z,61.40
2022-12-09T11:18:52.185Z,61.39
2022-12-09T11:21:39.002Z,60.90
2022-12-09T11:24:26.174Z,60.87
2022-12-09T11:27:28.165Z,61.45
2022-12-09T11:30:20.325Z,61.30
2022-12-09T11:33:16.551Z,60.87
2022-12-09T11:36:10.688Z,61.21
2022-12-09T11:39:14.060Z,61.41
2022-12-09T11:42:20.780Z,61.92
2022-12-09T11:45:18.232Z,63.22
2022-12-09T11:48:30.313Z,63.88
2022-12-09T11:51:34.652Z,64.24
2022-12-09T11:54:26.375Z,64.69
2022-12-09T11:57:34.372Z,65.10
2022-12-09T12:00:26.115Z,65.17
2022-12-09T12:03:24.005Z,65.63
2022-12-09T12:06:23.993Z,65.42
2022-12-09T12:09:30.215Z,66.14
2022-12-09T12:12:46.746Z,66.22
2022-12-09T12:15:44.644Z,66.72
2022-12-09T12:18:52.897Z,66.93
2022-12-09T12:21:48.564Z,66.69
2022-12-09T12:24:48.269Z,66.97
2022-12-09T12:27:56.786Z,67.03
2022-12-09T12:31:01.791Z,66.89
2022-12-09T12:34:23.142Z,66.55
2022-12-09T12:37:24.099Z,66.11
2022-12-09T12:40:26.964Z,66.32
2022-12-09T12:43:51.250Z,66.38
2022-12-09T12:47:12.474Z,66.77
2022-12-09T12:50:02.223Z,66.78
2022-12-09T12:53:11.560Z,66.18
2022-12-09T12:56:05.836Z,66.73
2022-12-09T12:59:01.688Z,67.05
2022-12-09T13:01:56.442Z,67.08
2022-12-09T13:04:49.863Z,67.52
2022-12-09T13:07:41.425Z,67.91
2022-12-09T13:10:44.663Z,68.22
2022-12-09T13:13:39.767Z,68.04
2022-12-09T13:16:28.823Z,67.96
2022-12-09T13:19:28.328Z,68.09
2022-12-09T13:22:33.176Z,68.00
2022-12-09T13:25:33.575Z,67.95
2022-12-09T13:28:38.647Z,68.05
2022-12-09T13:31:31.896Z,68.52
2022-12-09T13:34:30.592Z,68.48
2022-12-09T13:37:31.995Z,68.42
2022-12-09T13:40:21.318Z,68.86
2022-12-09T13:43:12.929Z,68.80
2022-12-09T13:46:00.515Z,68.77
2022-12-09T13:48:47.400Z,68.98
2022-12-09T13:51:52.921Z,69.29
2022-12-09T13:54:47.044Z,69.99
2022-12-09T13:57:44.267Z,69.50
2022-12-09T14:00:30.353Z,69.54
2022-12-09T14:03:29.930Z,69.28
2022-12-09T14:06:29.548Z,69.18
2022-12-09T14:09:38.867Z,69.48
2022-12-09T14:12:25.312Z,69.33
2022-12-09T14:15:23.837Z,69.35
2022-12-09T14:18:33.064Z,69.60
2022-12-09T14:21:19.445Z,69.63
2022-12-09T14:24:08.826Z,69.95
2022-12-09T14:27:01.056Z,70.27
2022-12-09T14:29:50.276Z,70.11
2022-12-09T14:32:52.674Z,70.01
2022-12-09T14:35:39.156Z,70.40
2022-12-09T14:38:28.869Z,70.49
2022-12-09T14:41:23.161Z,70.70
2022-12-09T14:44:19.176Z,70.72
2022-12-09T14:47:15.124Z,71.32
2022-12-09T14:50:08.318Z,71.78
2022-12-09T14:53:02.547Z,71.77
2022-12-09T14:55:48.725Z,71.82
2022-12-09T14:58:35.256Z,71.57
2022-12-09T15:01:21.602Z,71.46
2022-12-09T15:04:10.850Z,71.38
2022-12-09T15:07:16.234Z,71.45
2022-12-09T15:10:08.728Z,71.63
2022-12-09T15:12:56.238Z,71.29
2022-12-09T15:15:42.794Z,71.29
2022-12-09T15:18:30.899Z,71.73
2022-12-09T15:21:35.467Z,71.83
2022-12-09T15:24:22.146Z,71.73
2022-12-09T15:27:17.807Z,71.93
2022-12-09T15:30:22.311Z,72.30
2022-12-09T15:33:16.846Z,72.30
2022-12-09T15:36:11.631Z,71.87
2022-12-09T15:38:57.822Z,71.98
2022-12-09T15:42:04.483Z,72.19
2022-12-09T15:45:12.277Z,72.64
2022-12-09T15:48:20.191Z,73.28
2022-12-09T15:51:09.550Z,73.23
2022-12-09T15:54:01.364Z,72.81
2022-12-09T15:56:49.753Z,72.67
2022-12-09T15:59:39.570Z,72.56
2022-12-09T16:02:27.751Z,72.80
2022-12-09T16:05:14.252Z,72.91
2022-12-09T16:08:00.622Z,72.99
2022-12-09T16:10:48.720Z,72.60
2022-12-09T16:13:35.361Z,73.03
2022-12-09T16:16:24.408Z,73.26
2022-12-09T16:19:29.726Z,73.32
2022-12-09T16:22:29.247Z,73.50
2022-12-09T16:25:25.206Z,73.89
2022-12-09T16:28:22.935Z,74.17
2022-12-09T16:31:17.977Z,74.24
2022-12-09T16:34:06.630Z,74.15
2022-12-09T16:36:55.146Z,74.10
2022-12-09T16:39:41.688Z,74.26
2022-12-09T16:42:37.836Z,74.82
2022-12-09T16:45:32.974Z,75.27
2022-12-09T16:48:39.551Z,75.20
2022-12-09T16:51:25.869Z,74.95
2022-12-09T16:54:19.992Z,75.32
2022-12-09T16:57:13.361Z,75.63
2022-12-09T16:59:59.810Z,75.47
2022-12-09T17:03:07.669Z,75.92
2022-12-09T17:05:54.248Z,76.25
2022-12-09T17:08:40.941Z,75.94
2022-12-09T17:11:27.452Z,75.92
2022-12-09T17:14:14.139Z,75.86
2022-12-09T17:17:03.820Z,75.90
2022-12-09T17:19:50.126Z,76.43
2022-12-09T17:22:36.531Z,76.34
2022-12-09T17:25:22.783Z,76.27
2022-12-09T17:28:09.273Z,76.10
2022-12-09T17:30:55.928Z,76.36
2022-12-09T17:33:43.861Z,76.53
2022-12-09T17:36:30.371Z,76.74
2022-12-09T17:39:17.123Z,76.69
2022-12-09T17:42:03.630Z,76.77
2022-12-09T17:44:50.217Z,76.89
2022-12-09T17:47:36.981Z,76.80
2022-12-09T17:50:23.533Z,77.16
2022-12-09T17:53:09.949Z,77.44
2022-12-09T17:55:56.701Z,77.32
2022-12-09T17:58:43.334Z,76.60
2022-12-09T18:01:29.701Z,77.15
2022-12-09T18:04:16.513Z,77.15
2022-12-09T18:07:02.673Z,77.37
2022-12-09T18:09:54.397Z,77.43
2022-12-09T18:12:41.996Z,77.51
2022-12-09T18:15:28.481Z,77.33
2022-12-09T18:18:14.965Z,77.25
2022-12-09T18:21:01.578Z,77.27
2022-12-09T18:23:48.412Z,77.40
2022-12-09T18:26:41.097Z,77.66
2022-12-09T18:29:27.952Z,77.52
2022-12-09T18:32:15.171Z,77.65
2022-12-09T18:35:01.602Z,77.81
2022-12-09T18:37:47.842Z,77.74
2022-12-09T18:40:33.889Z,77.78
2022-12-09T18:43:20.374Z,77.94
2022-12-09T18:46:33.318Z,77.91
2022-12-09T18:49:21.183Z,77.41
2022-12-09T18:52:07.688Z,77.75
2022-12-09T18:54:54.106Z,77.79
2022-12-09T18:57:40.530Z,78.11
2022-12-09T19:00:27.069Z,77.97
2022-12-09T19:03:13.664Z,78.27
2022-12-09T19:05:59.992Z,77.98
2022-12-09T19:08:47.154Z,78.10
2022-12-09T19:11:35.116Z,78.06
2022-12-09T19:14:22.126Z,77.96
2022-12-09T19:17:08.394Z,78.11
2022-12-09T19:19:54.482Z,77.89
2022-12-09T19:22:41.261Z,77.94
2022-12-09T19:25:28.178Z,78.02
2022-12-09T19:28:15.718Z,78.07
2022-12-09T19:31:11.725Z,78.36
2022-12-09T19:33:59.656Z,78.79
2022-12-09T19:36:46.355Z,78.55
2022-12-09T19:39:34.286Z,78.65
2022-12-09T19:42:24.245Z,78.76
2022-12-09T19:45:14.593Z,78.58
2022-12-09T19:48:01.788Z,78.12
2022-12-09T19:50:48.944Z,78.10
2022-12-09T19:53:36.449Z,78.04
2022-12-09T19:56:31.378Z,78.63
2022-12-09T19:59:18.094Z,78.63
2022-12-09T20:02:13.916Z,78.65
2022-12-09T20:05:02.534Z,78.66
2022-12-09T20:07:49.467Z,78.92
2022-12-09T20:10:43.105Z,78.85
2022-12-09T20:13:32.055Z,78.65
2022-12-09T20:16:20.935Z,78.62
2022-12-09T20:19:07.903Z,79.02
2022-12-09T20:21:54.162Z,78.84
2022-12-09T20:24:41.086Z,78.87
2022-12-09T20:27:27.679Z,78.43
2022-12-09T20:30:13.927Z,78.56
2022-12-09T20:33:00.289Z,78.42
2022-12-09T20:35:46.513Z,78.47
2022-12-09T20:38:34.902Z,78.42
2022-12-09T20:41:23.853Z,78.69
2022-12-09T20:44:11.090Z,78.63
2022-12-09T20:46:57.252Z,78.71
2022-12-09T20:49:43.703Z,78.69
2022-12-09T20:52:30.216Z,79.41
2022-12-09T20:55:16.971Z,78.88
2022-12-09T20:58:03.849Z,78.63
2022-12-09T21:00:50.099Z,79.08
2022-12-09T21:03:36.833Z,79.10
2022-12-09T21:06:24.843Z,79.00
2022-12-09T21:09:14.921Z,78.71
2022-12-09T21:12:02.342Z,78.48
2022-12-09T21:14:48.372Z,78.63
2022-12-09T21:17:34.613Z,78.76
2022-12-09T21:20:22.462Z,78.90
2022-12-09T21:23:32.923Z,78.69
2022-12-09T21:26:18.603Z,78.60
2022-12-09T21:29:04.981Z,78.78
2022-12-09T21:31:54.389Z,79.06
2022-12-09T21:34:40.951Z,79.23
2022-12-09T21:37:31.045Z,79.02
2022-12-09T21:40:17.542Z,78.63
2022-12-09T21:43:04.246Z,79.00
2022-12-09T21:45:50.528Z,79.22
2022-12-09T21:48:36.984Z,79.30
2022-12-09T21:51:23.632Z,79.21
2022-12-09T21:54:10.282Z,79.04
2022-12-09T21:56:59.074Z,78.89
2022-12-09T21:59:45.389Z,78.87
2022-12-09T22:02:31.794Z,78.79
2022-12-09T22:05:18.156Z,78.50
2022-12-09T22:08:04.937Z,78.46
2022-12-09T22:10:51.564Z,78.98
2022-12-09T22:13:39.770Z,78.85
2022-12-09T22:16:31.583Z,79.22
2022-12-09T22:19:19.246Z,79.03
2022-12-09T22:22:08.982Z,78.92
2022-12-09T22:24:55.857Z,79.09
2022-12-09T22:27:42.151Z,79.21
2022-12-09T22:30:28.902Z,79.39
2022-12-09T22:33:15.408Z,79.54
2022-12-09T22:36:04.885Z,79.29
2022-12-09T22:38:52.651Z,79.39
2022-12-09T22:41:39.301Z,79.17
2022-12-09T22:44:27.978Z,79.45
2022-12-09T22:47:14.726Z,79.12
2022-12-09T22:50:01.309Z,79.21
2022-12-09T22:52:48.291Z,79.14
2022-12-09T22:55:34.766Z,79.09
2022-12-09T22:58:23.365Z,79.29
2022-12-09T23:01:11.561Z,79.41
2022-12-09T23:03:58.106Z,79.07
2022-12-09T23:06:45.029Z,79.03
2022-12-09T23:09:31.362Z,79.11
2022-12-09T23:12:17.991Z,78.96
2022-12-09T23:15:04.440Z,79.27
2022-12-09T23:17:52.772Z,79.13
2022-12-09T23:20:39.140Z,79.41
2022-12-09T23:23:25.177Z,79.53
2022-12-09T23:26:13.764Z,79.42
2022-12-09T23:29:00.759Z,79.53
2022-12-09T23:31:47.478Z,79.19
2022-12-09T23:34:33.638Z,79.31
2022-12-09T23:37:20.159Z,79.28
2022-12-09T23:40:07.526Z,79.79
2022-12-09T23:42:54.136Z,79.35
2022-12-09T23:45:40.712Z,79.55
2022-12-09T23:48:27.926Z,79.71
2022-12-09T23:51:19.419Z,79.73
2022-12-09T23:54:06.332Z,79.63
2022-12-09T23:56:53.004Z,79.98
2022-12-09T23:59:39.564Z,79.78
